createdAt,value
2023-09-17T00:01:24.767Z,3.70
2023-09-17T00:03:53.583Z,3.55
2023-09-17T00:06:21.197Z,4.47
2023-09-17T00:08:48.172Z,3.20
2023-09-17T00:11:15.601Z,4.25
2023-09-17T00:13:42.978Z,5.28
2023-09-17T00:16:11.554Z,3.55
2023-09-17T00:18:38.965Z,3.65
2023-09-17T00:21:07.472Z,4.13
2023-09-17T00:23:34.636Z,4.25
2023-09-17T00:26:01.602Z,3.97
2023-09-17T00:28:28.585Z,3.40
2023-09-17T00:30:55.824Z,3.17
2023-09-17T00:33:22.938Z,4.47
2023-09-17T00:35:49.862Z,3.38
2023-09-17T00:38:16.761Z,3.42
2023-09-17T00:40:43.781Z,3.50
2023-09-17T00:43:10.843Z,3.80
2023-09-17T00:45:39.304Z,2.90
2023-09-17T00:48:07.022Z,3.20
2023-09-17T00:50:34.746Z,2.83
2023-09-17T00:53:02.480Z,3.80
2023-09-17T00:55:30.925Z,2.97
2023-09-17T00:57:59.732Z,3.05
2023-09-17T01:00:27.443Z,3.03
2023-09-17T01:02:55.929Z,3.28
2023-09-17T01:05:23.072Z,2.58
2023-09-17T01:07:51.228Z,2.70
2023-09-17T01:10:19.277Z,3.13
2023-09-17T01:12:47.041Z,3.30
2023-09-17T01:15:14.526Z,2.83
2023-09-17T01:17:41.720Z,2.95
2023-09-17T01:20:30.677Z,3.38
2023-09-17T01:23:08.161Z,2.80
2023-09-17T01:26:07.762Z,2.92
2023-09-17T01:28:35.208Z,2.88
2023-09-17T01:31:02.291Z,3.45
2023-09-17T01:33:32.066Z,2.97
2023-09-17T01:36:20.216Z,6.90
2023-09-17T01:38:58.659Z,3.55
2023-09-17T01:41:28.725Z,2.60
2023-09-17T01:43:57.194Z,3.58
2023-09-17T01:46:26.889Z,2.80
2023-09-17T01:48:55.681Z,3.05
2023-09-17T01:51:22.979Z,2.60
2023-09-17T01:53:50.352Z,2.83
2023-09-17T01:56:19.125Z,2.63
2023-09-17T01:58:45.998Z,2.38
2023-09-17T02:01:13.007Z,2.45
2023-09-17T02:03:40.098Z,2.33
2023-09-17T02:06:07.025Z,2.50
2023-09-17T02:08:35.534Z,2.42
2023-09-17T02:11:05.747Z,2.13
2023-09-17T02:13:32.711Z,2.33
2023-09-17T02:16:03.137Z,2.72
2023-09-17T02:18:59.773Z,2.75
2023-09-17T02:21:26.741Z,2.38
2023-09-17T02:23:55.974Z,3.22
2023-09-17T02:26:22.952Z,1.95
2023-09-17T02:28:50.584Z,2.17
2023-09-17T02:31:17.562Z,2.25
2023-09-17T02:33:44.787Z,1.95
2023-09-17T02:36:12.956Z,2.40
2023-09-17T02:38:42.168Z,2.15
2023-09-17T02:41:09.273Z,2.30
2023-09-17T02:43:37.574Z,2.53
2023-09-17T02:46:05.177Z,1.83
2023-09-17T02:48:33.362Z,3.13
2023-09-17T02:51:01.122Z,1.90
2023-09-17T03:01:26.668Z,1.98
2023-09-17T03:03:54.199Z,2.95
2023-09-17T03:06:21.218Z,2.42
2023-09-17T03:08:48.277Z,2.47
2023-09-17T03:11:18.297Z,1.90
2023-09-17T03:13:47.377Z,3.03
2023-09-17T03:16:16.513Z,2.15
2023-09-17T03:18:44.170Z,2.17
2023-09-17T03:21:12.156Z,4.15
2023-09-17T03:23:39.961Z,1.63
2023-09-17T03:26:09.987Z,2.00
2023-09-17T03:28:37.150Z,2.03
2023-09-17T03:31:04.711Z,2.13
2023-09-17T03:33:34.955Z,2.50
2023-09-17T03:36:02.119Z,1.67
2023-09-17T03:38:29.026Z,2.40
2023-09-17T03:40:56.442Z,1.98
2023-09-17T03:43:23.932Z,2.13
2023-09-17T03:45:52.440Z,2.00
2023-09-17T03:48:20.072Z,2.25
2023-09-17T03:50:47.241Z,2.58
2023-09-17T03:53:14.872Z,1.75
2023-09-17T03:55:41.893Z,1.90
2023-09-17T03:58:10.238Z,1.80
2023-09-17T04:00:37.233Z,1.85
2023-09-17T04:03:06.398Z,2.25
2023-09-17T04:05:33.741Z,2.60
2023-09-17T04:08:00.631Z,1.98
2023-09-17T04:10:27.674Z,2.78
2023-09-17T04:12:54.627Z,1.85
2023-09-17T04:15:22.072Z,1.77
2023-09-17T04:17:52.785Z,1.67
2023-09-17T04:22:50.999Z,1.38
2023-09-17T04:25:21.141Z,1.67
2023-09-17T04:27:49.490Z,1.92
2023-09-17T04:30:18.050Z,1.73
2023-09-17T04:32:47.669Z,1.80
2023-09-17T04:35:19.829Z,1.77
2023-09-17T04:37:49.899Z,1.98
2023-09-17T04:40:19.247Z,1.63
2023-09-17T04:42:54.199Z,1.52
2023-09-17T04:45:38.869Z,2.85
2023-09-17T04:48:07.477Z,1.63
2023-09-17T04:50:35.352Z,1.92
2023-09-17T04:53:03.335Z,1.73
2023-09-17T04:55:30.392Z,1.85
2023-09-17T04:57:57.335Z,1.45
2023-09-17T05:00:24.198Z,1.98
2023-09-17T05:02:51.356Z,2.03
2023-09-17T05:05:22.421Z,1.88
2023-09-17T05:07:51.035Z,2.13
2023-09-17T05:10:18.170Z,1.85
2023-09-17T05:12:45.183Z,1.92
2023-09-17T05:15:12.937Z,2.17
2023-09-17T05:17:40.367Z,2.90
2023-09-17T05:20:08.366Z,1.70
2023-09-17T05:22:36.497Z,2.05
2023-09-17T05:25:05.495Z,1.75
2023-09-17T05:27:32.499Z,1.70
2023-09-17T05:30:01.739Z,1.70
2023-09-17T05:32:29.619Z,1.70
2023-09-17T05:35:01.106Z,3.70
2023-09-17T05:37:28.936Z,2.13
2023-09-17T05:39:56.472Z,2.03
2023-09-17T05:42:23.573Z,1.90
2023-09-17T05:44:50.565Z,2.25
2023-09-17T05:47:20.659Z,1.88
2023-09-17T05:49:47.614Z,1.85
2023-09-17T05:52:14.496Z,1.92
2023-09-17T05:54:41.440Z,2.28
2023-09-17T05:57:08.298Z,2.03
2023-09-17T05:59:35.488Z,1.75
2023-09-17T06:02:02.526Z,2.08
2023-09-17T06:04:29.516Z,1.83
2023-09-17T06:06:56.419Z,1.35
2023-09-17T06:09:23.395Z,2.00
2023-09-17T06:11:51.577Z,1.83
2023-09-17T06:14:19.008Z,1.95
2023-09-17T06:16:56.698Z,1.98
2023-09-17T06:19:25.740Z,2.10
2023-09-17T06:21:54.633Z,1.83
2023-09-17T06:24:21.530Z,1.77
2023-09-17T06:26:48.627Z,1.67
2023-09-17T06:29:15.730Z,1.75
2023-09-17T06:31:43.630Z,1.73
2023-09-17T06:34:10.858Z,1.77
2023-09-17T06:36:38.608Z,2.25
2023-09-17T06:39:07.940Z,2.05
2023-09-17T06:41:38.178Z,1.80
2023-09-17T06:44:06.310Z,5.00
2023-09-17T06:46:33.753Z,1.80
2023-09-17T06:49:00.870Z,1.70
2023-09-17T06:51:27.791Z,1.85
2023-09-17T06:53:54.723Z,1.60
2023-09-17T06:56:25.021Z,2.17
2023-09-17T07:01:20.181Z,1.73
2023-09-17T07:03:47.937Z,1.52
2023-09-17T07:06:15.049Z,1.83
2023-09-17T07:08:41.928Z,1.70
2023-09-17T07:11:08.842Z,1.65
2023-09-17T07:13:35.787Z,2.40
2023-09-17T07:16:02.741Z,2.75
2023-09-17T07:18:32.921Z,1.55
2023-09-17T07:21:00.196Z,1.75
2023-09-17T07:23:27.117Z,1.80
2023-09-17T07:25:54.048Z,2.10
2023-09-17T07:28:21.814Z,2.10
2023-09-17T07:30:56.219Z,1.65
2023-09-17T07:33:23.983Z,1.95
2023-09-17T07:35:51.080Z,1.55
2023-09-17T07:38:18.069Z,1.70
2023-09-17T07:40:46.085Z,1.38
2023-09-17T07:43:13.004Z,1.33
2023-09-17T07:45:39.834Z,2.28
2023-09-17T07:48:07.159Z,1.52
2023-09-17T07:50:34.105Z,1.65
2023-09-17T07:53:01.069Z,2.08
2023-09-17T07:55:28.038Z,1.80
2023-09-17T07:57:56.028Z,3.13
2023-09-17T08:00:22.958Z,3.00
2023-09-17T08:02:50.359Z,1.42
2023-09-17T08:05:19.027Z,3.05
2023-09-17T08:07:46.876Z,2.55
2023-09-17T08:10:13.979Z,1.15
2023-09-17T08:12:40.979Z,1.15
2023-09-17T08:15:08.890Z,1.40
2023-09-17T08:17:35.805Z,1.52
2023-09-17T08:20:03.822Z,1.63
2023-09-17T08:22:30.827Z,1.10
2023-09-17T08:24:57.673Z,1.10
2023-09-17T08:27:24.537Z,1.10
2023-09-17T08:29:51.813Z,1.20
2023-09-17T08:32:21.270Z,0.90
2023-09-17T08:34:48.142Z,1.40
2023-09-17T08:37:15.181Z,1.20
2023-09-17T08:39:43.659Z,1.20
2023-09-17T08:42:11.824Z,1.23
2023-09-17T08:44:39.994Z,0.77
2023-09-17T08:47:06.939Z,1.00
2023-09-17T08:49:33.884Z,1.40
2023-09-17T08:52:05.606Z,1.00
2023-09-17T08:54:42.315Z,0.80
2023-09-17T08:57:13.466Z,1.10
2023-09-17T08:59:46.713Z,1.20
2023-09-17T09:02:25.699Z,1.20
2023-09-17T09:04:53.680Z,1.02
2023-09-17T09:07:23.663Z,0.73
2023-09-17T09:09:54.098Z,1.10
2023-09-17T09:12:21.925Z,1.33
2023-09-17T09:14:49.556Z,1.38
2023-09-17T09:17:16.501Z,0.80
2023-09-17T09:19:43.727Z,1.02
2023-09-17T09:22:10.744Z,3.50
2023-09-17T09:24:49.124Z,1.30
2023-09-17T09:27:16.602Z,0.85
2023-09-17T09:29:44.913Z,0.90
2023-09-17T09:32:14.142Z,1.00
2023-09-17T09:34:43.058Z,1.07
2023-09-17T09:37:11.143Z,1.10
2023-09-17T09:39:39.082Z,1.10
2023-09-17T09:42:08.960Z,1.33
2023-09-17T09:44:37.469Z,5.28
2023-09-17T09:47:05.879Z,1.25
2023-09-17T09:49:44.177Z,0.95
2023-09-17T09:52:16.198Z,1.35
2023-09-17T09:54:45.808Z,1.85
2023-09-17T09:57:15.766Z,1.00
2023-09-17T09:59:49.254Z,1.25
2023-09-17T10:02:21.576Z,2.85
2023-09-17T10:04:49.322Z,0.93
2023-09-17T10:07:17.802Z,1.08
2023-09-17T10:09:45.381Z,1.10
2023-09-17T10:12:13.014Z,1.20
2023-09-17T10:14:42.077Z,1.17
2023-09-17T10:17:12.002Z,1.02
2023-09-17T10:19:40.803Z,1.35
2023-09-17T10:22:10.301Z,1.40
2023-09-17T10:24:40.311Z,1.27
2023-09-17T10:27:09.083Z,0.88
2023-09-17T10:29:37.888Z,1.00
2023-09-17T10:32:06.695Z,0.90
2023-09-17T10:34:36.527Z,1.45
2023-09-17T10:37:05.803Z,1.20
2023-09-17T10:39:36.947Z,1.17
2023-09-17T10:42:07.176Z,1.25
2023-09-17T10:47:11.776Z,0.98
2023-09-17T10:49:41.618Z,1.23
2023-09-17T10:52:10.450Z,0.90
2023-09-17T10:54:37.405Z,1.10
2023-09-17T10:57:17.075Z,1.50
2023-09-17T10:59:45.489Z,1.13
2023-09-17T11:02:16.311Z,0.93
2023-09-17T11:04:45.680Z,1.13
2023-09-17T11:07:14.053Z,1.00
2023-09-17T11:09:43.261Z,0.95
2023-09-17T11:12:10.314Z,3.72
2023-09-17T11:14:37.293Z,1.17
2023-09-17T11:17:05.595Z,1.08
2023-09-17T11:19:33.276Z,1.00
2023-09-17T11:22:03.293Z,0.95
2023-09-17T11:24:33.549Z,1.38
2023-09-17T11:29:46.855Z,2.33
2023-09-17T11:32:22.363Z,1.25
2023-09-17T11:34:49.756Z,0.95
2023-09-17T11:37:19.470Z,0.90
2023-09-17T11:39:53.302Z,1.38
2023-09-17T11:42:24.449Z,1.17
2023-09-17T11:44:53.705Z,0.88
2023-09-17T11:47:21.742Z,0.80
2023-09-17T11:49:51.428Z,0.82
2023-09-17T11:52:18.461Z,0.93
2023-09-17T11:54:49.536Z,1.40
2023-09-17T11:57:26.843Z,0.88
2023-09-17T11:59:57.169Z,0.90
2023-09-17T12:04:53.392Z,0.77
2023-09-17T12:07:21.002Z,0.80
2023-09-17T12:09:58.757Z,0.93
2023-09-17T12:12:25.845Z,1.08
2023-09-17T12:14:52.772Z,1.08
2023-09-17T12:17:19.921Z,1.00
2023-09-17T12:19:58.473Z,0.80
2023-09-17T12:22:25.397Z,2.63
2023-09-17T12:25:04.250Z,0.93
2023-09-17T12:27:31.159Z,0.80
2023-09-17T12:29:58.314Z,0.80
2023-09-17T12:32:31.824Z,1.35
2023-09-17T12:34:59.067Z,1.00
2023-09-17T12:37:27.937Z,0.70
2023-09-17T12:39:55.280Z,1.08
2023-09-17T12:42:22.826Z,1.15
2023-09-17T12:44:51.404Z,1.00
2023-09-17T12:47:20.436Z,1.10
2023-09-17T12:49:47.806Z,0.85
2023-09-17T12:52:16.789Z,0.80
2023-09-17T12:54:44.162Z,0.80
2023-09-17T12:57:11.124Z,1.30
2023-09-17T12:59:39.176Z,1.38
2023-09-17T13:02:08.737Z,1.00
2023-09-17T13:04:44.464Z,0.88
2023-09-17T13:07:23.506Z,1.08
2023-09-17T13:09:56.636Z,1.35
2023-09-17T13:12:25.163Z,0.90
2023-09-17T13:14:53.261Z,0.90
2023-09-17T13:17:22.597Z,0.77
2023-09-17T13:19:50.825Z,1.00
2023-09-17T13:22:19.989Z,1.27
2023-09-17T13:24:48.253Z,1.13
2023-09-17T13:27:19.864Z,0.93
2023-09-17T13:29:56.388Z,0.90
2023-09-17T13:32:23.561Z,1.35
2023-09-17T13:34:51.165Z,0.93
2023-09-17T13:37:19.202Z,0.77
2023-09-17T13:39:52.929Z,0.90
2023-09-17T13:42:20.843Z,0.77
2023-09-17T13:44:47.891Z,0.90
2023-09-17T13:47:14.863Z,0.90
2023-09-17T13:49:42.934Z,0.90
2023-09-17T13:52:10.688Z,1.00
2023-09-17T13:54:43.440Z,1.40
2023-09-17T13:57:10.948Z,1.00
2023-09-17T13:59:37.852Z,1.20
2023-09-17T14:02:05.662Z,0.80
2023-09-17T14:04:34.372Z,2.15
2023-09-17T14:07:01.597Z,0.70
2023-09-17T14:09:28.529Z,0.80
2023-09-17T14:11:55.473Z,1.33
2023-09-17T14:14:22.349Z,0.93
2023-09-17T14:16:49.294Z,1.25
2023-09-17T14:19:19.676Z,1.27
2023-09-17T14:21:48.202Z,0.80
2023-09-17T14:24:15.229Z,1.70
2023-09-17T14:26:42.177Z,1.13
2023-09-17T14:29:09.093Z,1.33
2023-09-17T14:31:38.425Z,1.17
2023-09-17T14:34:07.205Z,1.63
2023-09-17T14:36:34.201Z,1.05
2023-09-17T14:39:01.056Z,1.25
2023-09-17T14:41:30.716Z,1.00
2023-09-17T14:43:57.600Z,1.00
2023-09-17T14:46:24.540Z,1.10
2023-09-17T14:48:53.765Z,1.60
2023-09-17T14:51:21.301Z,1.15
2023-09-17T14:53:48.228Z,1.08
2023-09-17T14:56:15.216Z,0.80
2023-09-17T14:58:42.159Z,1.30
2023-09-17T15:01:11.929Z,1.10
2023-09-17T15:03:46.086Z,1.38
2023-09-17T15:06:13.660Z,1.67
2023-09-17T15:08:41.631Z,1.20
2023-09-17T15:11:09.396Z,1.33
2023-09-17T15:13:36.359Z,1.15
2023-09-17T15:16:03.199Z,1.20
2023-09-17T15:18:30.078Z,1.02
2023-09-17T15:20:56.993Z,1.30
2023-09-17T15:23:23.874Z,1.20
2023-09-17T15:25:51.199Z,0.90
2023-09-17T15:28:18.077Z,2.13
2023-09-17T15:30:46.984Z,1.00
2023-09-17T15:33:14.087Z,1.35
2023-09-17T15:35:42.602Z,1.70
2023-09-17T15:38:09.900Z,1.17
2023-09-17T15:40:36.903Z,1.33
2023-09-17T15:43:04.097Z,2.50
2023-09-17T15:45:30.996Z,1.30
2023-09-17T15:47:58.320Z,1.10
2023-09-17T15:50:25.431Z,1.40
2023-09-17T15:52:52.483Z,1.40
2023-09-17T15:55:19.454Z,1.15
2023-09-17T15:57:47.286Z,1.48
2023-09-17T16:00:15.011Z,1.60
2023-09-17T16:02:42.322Z,1.50
2023-09-17T16:05:09.548Z,1.40
2023-09-17T16:07:41.903Z,2.33
2023-09-17T16:10:09.916Z,1.50
2023-09-17T16:12:36.929Z,1.65
2023-09-17T16:15:04.499Z,1.05
2023-09-17T16:17:34.111Z,1.60
2023-09-17T16:20:01.361Z,1.35
2023-09-17T16:22:28.272Z,2.58
2023-09-17T16:24:55.217Z,1.58
2023-09-17T16:27:22.155Z,1.58
2023-09-17T16:29:49.243Z,1.60
2023-09-17T16:32:16.424Z,1.80
2023-09-17T16:34:43.739Z,1.20
2023-09-17T16:37:10.778Z,1.13
2023-09-17T16:39:37.685Z,1.10
2023-09-17T16:42:04.965Z,1.55
2023-09-17T16:44:31.835Z,1.20
2023-09-17T16:47:04.231Z,1.05
2023-09-17T16:49:31.092Z,1.25
2023-09-17T16:51:57.981Z,1.30
2023-09-17T16:54:24.999Z,0.98
2023-09-17T16:56:51.885Z,1.38
2023-09-17T16:59:18.840Z,1.35
2023-09-17T17:01:46.265Z,1.27
2023-09-17T17:04:14.057Z,1.55
2023-09-17T17:06:41.095Z,1.48
2023-09-17T17:09:08.019Z,2.97
2023-09-17T17:11:35.816Z,1.17
2023-09-17T17:14:02.738Z,1.83
2023-09-17T17:16:29.681Z,1.80
2023-09-17T17:18:56.624Z,1.60
2023-09-17T17:21:23.671Z,1.90
2023-09-17T17:23:51.783Z,1.58
2023-09-17T17:28:59.737Z,1.55
2023-09-17T17:31:34.664Z,2.22
2023-09-17T17:34:01.553Z,1.63
2023-09-17T17:36:29.221Z,1.70
2023-09-17T17:38:56.203Z,1.70
2023-09-17T17:41:23.240Z,1.92
2023-09-17T17:43:50.846Z,1.77
2023-09-17T17:46:17.991Z,1.92
2023-09-17T17:48:45.400Z,1.88
2023-09-17T17:51:13.915Z,1.98
2023-09-17T17:53:40.821Z,1.83
2023-09-17T17:56:08.659Z,2.65
2023-09-17T17:58:35.709Z,1.60
2023-09-17T18:01:04.233Z,1.75
2023-09-17T18:03:31.734Z,1.98
2023-09-17T18:05:59.711Z,1.60
2023-09-17T18:08:27.325Z,1.55
2023-09-17T18:10:54.362Z,2.38
2023-09-17T18:13:21.336Z,1.63
2023-09-17T18:15:48.584Z,1.92
2023-09-17T18:18:16.771Z,2.75
2023-09-17T18:20:45.107Z,2.08
2023-09-17T18:23:12.800Z,1.88
2023-09-17T18:25:39.997Z,1.75
2023-09-17T18:28:09.885Z,2.20
2023-09-17T18:30:37.526Z,4.47
2023-09-17T18:33:07.021Z,5.32
2023-09-17T18:35:34.342Z,8.80
2023-09-17T18:38:01.328Z,4.53
2023-09-17T18:40:28.348Z,2.92
2023-09-17T18:42:55.287Z,2.15
2023-09-17T18:45:22.336Z,2.00
2023-09-17T18:47:49.291Z,2.00
2023-09-17T18:50:16.305Z,2.08
2023-09-17T18:52:43.237Z,1.92
2023-09-17T18:55:10.368Z,1.85
2023-09-17T18:57:38.225Z,1.92
2023-09-17T19:00:06.058Z,1.63
2023-09-17T19:02:33.143Z,1.83
2023-09-17T19:05:02.029Z,1.90
2023-09-17T19:07:28.982Z,1.75
2023-09-17T19:09:55.801Z,1.77
2023-09-17T19:12:23.987Z,2.00
2023-09-17T19:14:51.002Z,1.90
2023-09-17T19:17:17.876Z,1.83
2023-09-17T19:19:45.290Z,1.90
2023-09-17T19:22:12.265Z,1.42
2023-09-17T19:24:40.690Z,1.73
2023-09-17T19:27:07.561Z,1.83
2023-09-17T19:29:34.569Z,2.00
2023-09-17T19:32:01.568Z,1.55
2023-09-17T19:34:28.518Z,1.73
2023-09-17T19:36:56.626Z,1.33
2023-09-17T19:39:23.521Z,1.23
2023-09-17T19:41:50.388Z,1.92
2023-09-17T19:44:17.778Z,1.67
2023-09-17T19:46:45.638Z,1.60
2023-09-17T19:49:12.614Z,1.90
2023-09-17T19:51:39.563Z,2.00
2023-09-17T19:54:08.249Z,1.88
2023-09-17T19:56:35.194Z,1.83
2023-09-17T19:59:02.259Z,1.77
2023-09-17T20:01:29.383Z,2.10
2023-09-17T20:03:58.760Z,1.95
2023-09-17T20:06:39.640Z,1.48
2023-09-17T20:09:21.688Z,1.63
2023-09-17T20:11:48.813Z,1.58
2023-09-17T20:14:15.856Z,1.60
2023-09-17T20:16:42.828Z,1.83
2023-09-17T20:19:09.737Z,1.80
2023-09-17T20:21:36.575Z,1.67
2023-09-17T20:24:03.933Z,2.20
2023-09-17T20:26:30.783Z,2.00
2023-09-17T20:28:59.647Z,1.77
2023-09-17T20:31:26.547Z,2.70
2023-09-17T20:33:53.494Z,1.92
2023-09-17T20:36:20.354Z,2.08
2023-09-17T20:38:50.783Z,1.80
2023-09-17T20:41:18.679Z,1.65
2023-09-17T20:43:45.720Z,2.00
2023-09-17T20:46:12.740Z,2.30
2023-09-17T20:48:39.703Z,1.90
2023-09-17T20:51:06.641Z,4.22
2023-09-17T20:53:33.547Z,2.20
2023-09-17T20:56:02.393Z,2.22
2023-09-17T20:58:29.363Z,1.95
2023-09-17T21:00:56.290Z,2.03
2023-09-17T21:03:23.319Z,2.47
2023-09-17T21:05:50.685Z,2.10
2023-09-17T21:08:17.730Z,2.33
2023-09-17T21:10:44.708Z,2.22
2023-09-17T21:13:11.865Z,1.67
2023-09-17T21:15:39.645Z,1.90
2023-09-17T21:18:07.611Z,2.22
2023-09-17T21:20:34.590Z,1.55
2023-09-17T21:23:02.734Z,2.08
2023-09-17T21:25:30.312Z,2.22
2023-09-17T21:27:57.183Z,2.10
2023-09-17T21:30:24.281Z,2.13
2023-09-17T21:32:51.175Z,2.78
2023-09-17T21:35:18.425Z,2.40
2023-09-17T21:37:45.436Z,2.35
2023-09-17T21:40:13.025Z,1.55
2023-09-17T21:42:40.132Z,2.50
2023-09-17T21:45:07.626Z,2.15
2023-09-17T21:47:34.579Z,1.80
2023-09-17T21:50:02.047Z,2.40
2023-09-17T21:52:30.571Z,2.40
2023-09-17T21:54:58.300Z,2.55
2023-09-17T21:57:25.719Z,2.85
2023-09-17T21:59:53.371Z,2.03
2023-09-17T22:02:20.857Z,2.20
2023-09-17T22:04:48.679Z,1.80
2023-09-17T22:07:15.732Z,2.20
2023-09-17T22:09:42.633Z,1.98
2023-09-17T22:12:11.910Z,1.95
2023-09-17T22:14:39.344Z,2.42
2023-09-17T22:17:06.333Z,2.25
2023-09-17T22:19:34.160Z,2.38
2023-09-17T22:22:01.224Z,2.15
2023-09-17T22:24:28.163Z,2.42
2023-09-17T22:26:56.310Z,1.73
2023-09-17T22:29:23.386Z,2.03
2023-09-17T22:31:50.488Z,2.15
2023-09-17T22:34:17.412Z,2.40
2023-09-17T22:36:44.429Z,2.45
2023-09-17T22:39:11.342Z,2.33
2023-09-17T22:41:38.356Z,2.17
2023-09-17T22:44:21.023Z,2.22
2023-09-17T22:46:50.116Z,2.20
2023-09-17T22:49:16.982Z,2.08
2023-09-17T22:51:43.838Z,2.20
2023-09-17T22:54:10.697Z,1.98
2023-09-17T22:56:37.615Z,2.15
2023-09-17T22:59:04.950Z,2.20
2023-09-17T23:01:33.516Z,2.13
2023-09-17T23:04:00.512Z,2.10
2023-09-17T23:06:27.884Z,2.33
2023-09-17T23:08:56.105Z,2.17
2023-09-17T23:11:23.179Z,2.03
2023-09-17T23:13:50.965Z,1.90
2023-09-17T23:16:18.097Z,1.83
2023-09-17T23:18:45.075Z,2.22
2023-09-17T23:21:16.081Z,2.05
2023-09-17T23:23:44.064Z,2.30
2023-09-17T23:26:13.458Z,2.22
2023-09-17T23:28:41.054Z,2.13
2023-09-17T23:31:09.749Z,2.67
2023-09-17T23:33:36.698Z,2.10
2023-09-17T23:36:04.515Z,2.20
2023-09-17T23:38:32.250Z,2.00
2023-09-17T23:40:59.226Z,1.85
2023-09-17T23:43:26.214Z,1.98
2023-09-17T23:45:53.246Z,2.20
2023-09-17T23:48:20.151Z,2.00
2023-09-17T23:50:52.709Z,1.90
2023-09-17T23:53:19.636Z,1.77
2023-09-17T23:55:49.772Z,2.10
2023-09-17T23:58:20.234Z,1.88
